createdAt,value
2023-03-04T00:00:08.799Z,64.70
2023-03-04T00:02:35.638Z,60.90
2023-03-04T00:05:03.789Z,62.83
2023-03-04T00:07:30.634Z,53.58
2023-03-04T00:09:57.447Z,46.88
2023-03-04T00:12:24.252Z,49.67
2023-03-04T00:14:51.217Z,51.92
2023-03-04T00:17:18.064Z,49.75
2023-03-04T00:19:44.827Z,49.97
2023-03-04T00:22:11.604Z,47.88
2023-03-04T00:24:38.516Z,54.70
2023-03-04T00:27:05.294Z,53.08
2023-03-04T00:29:32.116Z,52.20
2023-03-04T00:31:58.999Z,49.35
2023-03-04T00:34:25.822Z,49.22
2023-03-04T00:36:52.571Z,56.05
2023-03-04T00:39:19.418Z,58.17
2023-03-04T00:41:46.248Z,45.30
2023-03-04T00:44:13.065Z,50.65
2023-03-04T00:46:39.847Z,58.65
2023-03-04T00:49:06.760Z,53.40
2023-03-04T00:51:34.154Z,54.33
2023-03-04T00:54:01.160Z,63.28
2023-03-04T00:56:28.145Z,50.83
2023-03-04T00:58:55.022Z,58.40
2023-03-04T01:01:21.943Z,47.20
2023-03-04T01:03:48.933Z,49.00
2023-03-04T01:06:15.810Z,53.75
2023-03-04T01:08:42.629Z,44.88
2023-03-04T01:11:09.564Z,46.65
2023-03-04T01:13:36.410Z,44.90
2023-03-04T01:16:03.860Z,39.58
2023-03-04T01:18:30.856Z,43.30
2023-03-04T01:20:58.333Z,40.47
2023-03-04T01:23:25.087Z,43.17
2023-03-04T01:25:51.814Z,42.58
2023-03-04T01:28:18.528Z,41.40
2023-03-04T01:30:45.430Z,52.22
2023-03-04T01:33:12.299Z,46.13
2023-03-04T01:35:39.175Z,41.42
2023-03-04T01:38:05.959Z,48.13
2023-03-04T01:40:32.997Z,48.92
2023-03-04T01:42:59.706Z,38.00
2023-03-04T01:45:26.488Z,41.83
2023-03-04T01:47:53.272Z,44.88
2023-03-04T01:50:27.955Z,43.03
2023-03-04T01:52:54.777Z,41.25
2023-03-04T01:55:22.854Z,41.33
2023-03-04T01:57:50.250Z,40.35
2023-03-04T02:00:31.892Z,36.20
2023-03-04T02:03:01.387Z,35.60
2023-03-04T02:05:28.236Z,40.15
2023-03-04T02:07:55.199Z,39.13
2023-03-04T02:10:22.163Z,39.58
2023-03-04T02:12:48.907Z,40.83
2023-03-04T02:15:15.692Z,35.63
2023-03-04T02:17:42.508Z,42.38
2023-03-04T02:20:22.907Z,36.03
2023-03-04T02:23:18.680Z,38.90
2023-03-04T02:25:52.841Z,38.97
2023-03-04T02:28:19.585Z,35.67
2023-03-04T02:30:46.431Z,37.38
2023-03-04T02:33:17.749Z,37.55
2023-03-04T02:35:44.651Z,38.65
2023-03-04T02:38:12.122Z,39.05
2023-03-04T02:40:39.519Z,33.65
2023-03-04T02:43:06.310Z,38.70
2023-03-04T02:45:36.138Z,40.95
2023-03-04T02:48:03.128Z,42.95
2023-03-04T02:50:31.502Z,42.20
2023-03-04T02:52:58.319Z,41.63
2023-03-04T02:55:25.144Z,40.72
2023-03-04T02:57:51.971Z,36.78
2023-03-04T03:00:18.880Z,37.33
2023-03-04T03:02:45.705Z,38.97
2023-03-04T03:05:12.742Z,42.80
2023-03-04T03:07:39.501Z,36.65
2023-03-04T03:10:06.483Z,41.33
2023-03-04T03:12:33.279Z,38.17
2023-03-04T03:15:00.002Z,39.97
2023-03-04T03:17:26.801Z,42.25
2023-03-04T03:19:53.573Z,40.65
2023-03-04T03:22:20.291Z,34.38
2023-03-04T03:24:47.146Z,36.00
2023-03-04T03:27:13.933Z,37.95
2023-03-04T03:29:40.699Z,39.28
2023-03-04T03:32:07.478Z,39.25
2023-03-04T03:34:34.499Z,34.53
2023-03-04T03:37:01.274Z,39.72
2023-03-04T03:39:28.037Z,44.03
2023-03-04T03:41:54.859Z,37.83
2023-03-04T03:44:21.682Z,38.55
2023-03-04T03:46:48.493Z,36.58
2023-03-04T03:49:17.171Z,38.92
2023-03-04T03:51:43.929Z,40.28
2023-03-04T03:54:10.691Z,40.40
2023-03-04T03:56:37.475Z,37.90
2023-03-04T03:59:04.245Z,41.83
2023-03-04T04:01:31.069Z,39.08
2023-03-04T04:03:57.896Z,39.38
2023-03-04T04:06:24.770Z,41.20
2023-03-04T04:08:51.618Z,45.33
2023-03-04T04:11:18.473Z,40.38
2023-03-04T04:13:45.273Z,42.50
2023-03-04T04:16:12.149Z,42.33
2023-03-04T04:18:39.065Z,41.25
2023-03-04T04:21:06.010Z,39.53
2023-03-04T04:23:32.964Z,36.30
2023-03-04T04:25:59.825Z,39.90
2023-03-04T04:28:26.624Z,38.17
2023-03-04T04:30:53.524Z,38.47
2023-03-04T04:33:20.369Z,39.30
2023-03-04T04:35:47.315Z,36.70
2023-03-04T04:38:14.097Z,37.67
2023-03-04T04:40:40.932Z,37.00
2023-03-04T04:43:07.761Z,37.75
2023-03-04T04:45:34.759Z,34.23
2023-03-04T04:48:01.504Z,35.65
2023-03-04T04:50:28.278Z,37.58
2023-03-04T04:52:55.082Z,36.97
2023-03-04T04:55:21.901Z,36.50
2023-03-04T04:57:48.670Z,37.90
2023-03-04T05:00:15.786Z,36.97
2023-03-04T05:02:42.596Z,34.20
2023-03-04T05:05:09.651Z,41.43
2023-03-04T05:07:36.931Z,39.95
2023-03-04T05:10:04.486Z,36.65
2023-03-04T05:12:31.401Z,33.00
2023-03-04T05:14:58.289Z,34.90
2023-03-04T05:17:25.176Z,34.40
2023-03-04T05:19:51.945Z,43.30
2023-03-04T05:22:18.696Z,36.92
2023-03-04T05:24:45.565Z,38.47
2023-03-04T05:27:12.425Z,42.13
2023-03-04T05:29:39.311Z,44.72
2023-03-04T05:32:06.156Z,37.20
2023-03-04T05:34:33.217Z,37.33
2023-03-04T05:37:00.002Z,39.58
2023-03-04T05:39:26.851Z,44.38
2023-03-04T05:41:53.638Z,37.67
2023-03-04T05:44:20.402Z,38.65
2023-03-04T05:46:47.287Z,45.95
2023-03-04T05:49:14.028Z,39.30
2023-03-04T05:51:40.817Z,46.75
2023-03-04T05:54:07.559Z,48.72
2023-03-04T05:56:34.332Z,40.13
2023-03-04T05:59:01.120Z,42.72
2023-03-04T06:01:27.978Z,53.65
2023-03-04T06:03:54.883Z,50.65
2023-03-04T06:06:21.710Z,48.25
2023-03-04T06:08:48.510Z,40.25
2023-03-04T06:11:15.237Z,40.33
2023-03-04T06:13:42.144Z,38.58
2023-03-04T06:16:09.792Z,40.00
2023-03-04T06:18:36.629Z,36.97
2023-03-04T06:21:04.077Z,43.80
2023-03-04T06:23:31.021Z,46.97
2023-03-04T06:25:59.946Z,46.40
2023-03-04T06:28:26.876Z,43.60
2023-03-04T06:30:54.199Z,43.53
2023-03-04T06:33:21.092Z,38.78
2023-03-04T06:35:48.062Z,41.60
2023-03-04T06:38:14.921Z,40.95
2023-03-04T06:40:41.655Z,42.60
2023-03-04T06:43:08.469Z,46.53
2023-03-04T06:45:35.365Z,39.42
2023-03-04T06:48:02.116Z,42.85
2023-03-04T06:50:28.922Z,45.40
2023-03-04T06:52:57.330Z,42.75
2023-03-04T06:55:24.331Z,42.95
2023-03-04T06:57:51.298Z,45.90
2023-03-04T07:00:19.431Z,43.17
2023-03-04T07:02:46.205Z,40.97
2023-03-04T07:05:12.961Z,54.88
2023-03-04T07:07:39.753Z,286.10
2023-03-04T07:10:06.898Z,53.13
2023-03-04T07:12:33.722Z,161.63
2023-03-04T07:15:00.477Z,52.88
2023-03-04T07:17:27.303Z,57.38
2023-03-04T07:19:54.082Z,48.05
2023-03-04T07:22:20.920Z,220.98
2023-03-04T07:24:47.688Z,44.38
2023-03-04T07:27:14.459Z,40.28
2023-03-04T07:29:41.294Z,44.47
2023-03-04T07:32:09.248Z,37.60
2023-03-04T07:34:36.191Z,39.78
2023-03-04T07:37:03.155Z,40.97
2023-03-04T07:39:29.925Z,41.00
2023-03-04T07:41:56.687Z,36.08
2023-03-04T07:44:23.470Z,40.80
2023-03-04T07:46:50.268Z,48.25
2023-03-04T07:49:17.017Z,49.60
2023-03-04T07:51:43.832Z,41.78
2023-03-04T07:54:10.759Z,42.20
2023-03-04T07:56:37.644Z,44.38
2023-03-04T07:59:04.599Z,47.35
2023-03-04T08:01:33.235Z,47.88
2023-03-04T08:04:00.198Z,52.80
2023-03-04T08:06:27.335Z,50.38
2023-03-04T08:08:58.922Z,44.10
2023-03-04T08:11:25.765Z,49.22
2023-03-04T08:13:54.238Z,46.80
2023-03-04T08:16:21.977Z,46.60
2023-03-04T08:18:51.655Z,41.25
2023-03-04T08:21:19.367Z,46.13
2023-03-04T08:23:46.679Z,40.63
2023-03-04T08:26:16.502Z,41.67
2023-03-04T08:28:43.780Z,45.10
2023-03-04T08:31:10.694Z,44.25
2023-03-04T08:33:37.572Z,44.20
2023-03-04T08:36:04.707Z,38.42
2023-03-04T08:38:32.106Z,36.08
2023-03-04T08:40:58.909Z,33.13
2023-03-04T08:43:26.019Z,37.08
2023-03-04T08:45:53.860Z,37.90
2023-03-04T08:48:21.016Z,38.28
2023-03-04T08:50:48.041Z,37.97
2023-03-04T08:53:15.029Z,29.25
2023-03-04T08:55:41.987Z,29.63
2023-03-04T08:58:08.965Z,33.28
2023-03-04T09:00:36.887Z,47.58
2023-03-04T09:03:04.085Z,39.15
2023-03-04T09:05:31.496Z,36.80
2023-03-04T09:07:58.329Z,40.53
2023-03-04T09:10:25.303Z,38.65
2023-03-04T09:12:52.126Z,42.65
2023-03-04T09:15:19.031Z,49.38
2023-03-04T09:17:45.856Z,124.10
2023-03-04T09:20:13.121Z,59.20
2023-03-04T09:22:40.244Z,52.53
2023-03-04T09:25:11.625Z,42.95
2023-03-04T09:27:39.565Z,43.53
2023-03-04T09:30:07.003Z,41.05
2023-03-04T09:32:33.743Z,47.90
2023-03-04T09:35:00.596Z,39.65
2023-03-04T09:37:27.332Z,36.50
2023-03-04T09:39:54.063Z,37.72
2023-03-04T09:42:38.408Z,45.72
2023-03-04T09:45:06.060Z,45.40
2023-03-04T09:47:34.581Z,40.45
2023-03-04T09:50:02.829Z,37.00
2023-03-04T09:53:10.310Z,35.15
2023-03-04T09:55:42.073Z,42.30
2023-03-04T09:58:26.967Z,39.47
2023-03-04T10:01:20.213Z,38.30
2023-03-04T10:04:00.312Z,39.58
2023-03-04T10:06:27.096Z,42.80
2023-03-04T10:09:04.568Z,42.28
2023-03-04T10:11:49.364Z,49.15
2023-03-04T10:14:37.676Z,46.25
2023-03-04T10:17:07.485Z,48.13
2023-03-04T10:19:53.104Z,49.00
2023-03-04T10:22:33.242Z,59.45
2023-03-04T10:25:14.541Z,50.67
2023-03-04T10:27:41.850Z,51.50
2023-03-04T10:30:30.336Z,52.85
2023-03-04T10:32:57.196Z,47.83
2023-03-04T10:35:27.321Z,47.92
2023-03-04T10:37:54.116Z,59.05
2023-03-04T10:40:25.690Z,49.03
2023-03-04T10:42:52.563Z,50.67
2023-03-04T10:45:21.822Z,44.05
2023-03-04T10:47:55.581Z,41.97
2023-03-04T10:50:26.942Z,37.92
2023-03-04T10:52:55.733Z,45.05
2023-03-04T10:55:27.313Z,40.42
2023-03-04T10:58:02.959Z,47.85
2023-03-04T11:00:34.257Z,39.13
2023-03-04T11:03:29.175Z,41.13
2023-03-04T11:06:18.306Z,33.22
2023-03-04T11:08:45.413Z,52.13
2023-03-04T11:11:27.058Z,50.78
2023-03-04T11:13:57.615Z,42.22
2023-03-04T11:16:29.631Z,37.38
2023-03-04T11:18:59.503Z,33.78
2023-03-04T11:21:29.016Z,37.13
2023-03-04T11:24:08.173Z,39.75
2023-03-04T11:26:43.130Z,37.00
2023-03-04T11:29:30.520Z,36.42
2023-03-04T11:32:15.370Z,39.67
2023-03-04T11:34:51.186Z,36.53
2023-03-04T11:37:44.408Z,37.92
2023-03-04T11:40:13.059Z,40.72
2023-03-04T11:42:53.595Z,36.10
2023-03-04T11:46:01.364Z,44.58
2023-03-04T11:48:41.338Z,48.67
2023-03-04T11:51:21.546Z,41.10
2023-03-04T11:53:55.141Z,40.17
2023-03-04T11:56:38.185Z,37.15
2023-03-04T11:59:13.951Z,40.80
2023-03-04T12:01:59.504Z,47.28
2023-03-04T12:05:19.657Z,52.22
2023-03-04T12:07:58.384Z,42.03
2023-03-04T12:11:09.331Z,44.30
2023-03-04T12:14:16.464Z,45.50
2023-03-04T12:16:55.228Z,53.42
2023-03-04T12:19:26.977Z,35.35
2023-03-04T12:22:38.831Z,37.38
2023-03-04T12:25:42.168Z,67.75
2023-03-04T12:28:16.207Z,44.25
2023-03-04T12:31:01.658Z,64.47
2023-03-04T12:33:45.030Z,98.00
2023-03-04T12:36:20.829Z,128.20
2023-03-04T12:39:03.822Z,44.85
2023-03-04T12:42:05.598Z,57.80
2023-03-04T12:44:35.023Z,38.75
2023-03-04T12:48:03.238Z,91.80
2023-03-04T12:50:42.856Z,38.03
2023-03-04T12:53:27.143Z,33.00
2023-03-04T12:55:53.910Z,81.07
2023-03-04T12:58:22.602Z,40.28
2023-03-04T13:00:52.177Z,32.45
2023-03-04T13:03:24.686Z,49.28
2023-03-04T13:06:09.540Z,40.88
2023-03-04T13:08:54.852Z,45.03
2023-03-04T13:11:28.362Z,40.72
2023-03-04T13:14:15.049Z,42.13
2023-03-04T13:16:42.467Z,39.47
2023-03-04T13:19:43.490Z,43.97
2023-03-04T13:22:37.996Z,40.60
2023-03-04T13:25:35.849Z,42.58
2023-03-04T13:28:05.235Z,38.33
2023-03-04T13:30:32.052Z,40.85
2023-03-04T13:33:22.400Z,47.28
2023-03-04T13:36:01.930Z,32.90
2023-03-04T13:38:30.842Z,36.53
2023-03-04T13:41:00.675Z,41.53
2023-03-04T13:43:29.115Z,45.53
2023-03-04T13:45:56.169Z,41.97
2023-03-04T13:48:37.390Z,46.78
2023-03-04T13:51:04.346Z,40.75
2023-03-04T13:53:40.740Z,38.50
2023-03-04T13:56:38.290Z,39.58
2023-03-04T13:59:08.295Z,43.55
2023-03-04T14:01:36.751Z,38.57
2023-03-04T14:04:22.978Z,39.05
2023-03-04T14:06:50.693Z,44.28
2023-03-04T14:09:21.471Z,47.97
2023-03-04T14:11:48.602Z,39.75
2023-03-04T14:14:27.034Z,43.83
2023-03-04T14:16:59.445Z,38.58
2023-03-04T14:19:36.074Z,82.80
2023-03-04T14:22:02.834Z,36.05
2023-03-04T14:24:31.005Z,34.67
2023-03-04T14:27:11.736Z,34.08
2023-03-04T14:29:38.464Z,43.88
2023-03-04T14:32:05.928Z,38.72
2023-03-04T14:34:37.898Z,31.40
2023-03-04T14:37:16.689Z,33.97
2023-03-04T14:39:43.519Z,35.72
2023-03-04T14:42:12.120Z,28.20
2023-03-04T14:44:48.946Z,29.00
2023-03-04T14:47:29.904Z,33.03
2023-03-04T14:49:56.699Z,33.45
2023-03-04T14:52:40.363Z,33.03
2023-03-04T14:55:25.698Z,30.98
2023-03-04T14:57:58.393Z,31.33
2023-03-04T15:00:27.468Z,32.15
2023-03-04T15:03:07.977Z,27.58
2023-03-04T15:05:35.539Z,29.60
2023-03-04T15:08:21.453Z,31.15
2023-03-04T15:11:01.559Z,32.40
2023-03-04T15:13:58.289Z,28.83
2023-03-04T15:16:26.952Z,37.20
2023-03-04T15:19:05.884Z,59.35
2023-03-04T15:21:37.386Z,34.63
2023-03-04T15:24:06.125Z,31.83
2023-03-04T15:26:33.338Z,34.17
2023-03-04T15:29:00.172Z,33.03
2023-03-04T15:31:27.458Z,40.38
2023-03-04T15:33:54.257Z,35.20
2023-03-04T15:36:22.252Z,52.53
2023-03-04T15:38:52.906Z,41.72
2023-03-04T15:41:25.007Z,33.72
2023-03-04T15:43:52.507Z,36.83
2023-03-04T15:46:19.624Z,38.70
2023-03-04T15:48:46.719Z,38.13
2023-03-04T15:51:15.590Z,39.60
2023-03-04T15:53:50.575Z,37.38
2023-03-04T15:56:24.649Z,33.25
2023-03-04T15:58:57.394Z,32.75
2023-03-04T16:01:24.486Z,43.13
2023-03-04T16:03:53.511Z,44.20
2023-03-04T16:06:24.356Z,43.63
2023-03-04T16:08:51.130Z,58.13
2023-03-04T16:11:22.246Z,54.92
2023-03-04T16:13:49.161Z,60.95
2023-03-04T16:16:16.207Z,70.28
2023-03-04T16:18:43.236Z,76.07
2023-03-04T16:21:13.064Z,96.60
2023-03-04T16:23:41.718Z,119.88
2023-03-04T16:26:16.079Z,95.47
2023-03-04T16:28:42.906Z,80.85
2023-03-04T16:31:13.399Z,83.63
2023-03-04T16:33:40.454Z,83.05
2023-03-04T16:36:20.096Z,84.75
2023-03-04T16:38:47.029Z,75.18
2023-03-04T16:41:15.057Z,71.88
2023-03-04T16:43:42.883Z,77.38
2023-03-04T16:46:12.848Z,72.47
2023-03-04T16:48:39.989Z,71.97
2023-03-04T16:51:13.072Z,93.03
2023-03-04T16:53:39.960Z,100.78
2023-03-04T16:56:14.323Z,99.35
2023-03-04T16:58:41.710Z,103.95
2023-03-04T17:01:20.365Z,100.40
2023-03-04T17:03:47.231Z,104.65
2023-03-04T17:06:14.178Z,97.63
2023-03-04T17:08:42.062Z,104.97
2023-03-04T17:11:15.836Z,101.53
2023-03-04T17:13:42.751Z,97.25
2023-03-04T17:16:10.738Z,100.50
2023-03-04T17:18:38.859Z,246.07
2023-03-04T17:21:07.238Z,108.18
2023-03-04T17:23:35.032Z,97.50
2023-03-04T17:26:01.842Z,106.40
2023-03-04T17:28:28.829Z,92.57
2023-03-04T17:30:55.570Z,103.25
2023-03-04T17:33:22.530Z,93.90
2023-03-04T17:35:49.474Z,95.10
2023-03-04T17:38:16.458Z,103.93
2023-03-04T17:40:43.306Z,103.97
2023-03-04T17:43:13.627Z,100.55
2023-03-04T17:45:44.049Z,106.10
2023-03-04T17:48:17.861Z,98.53
2023-03-04T17:50:51.259Z,101.07
2023-03-04T17:53:18.251Z,93.28
2023-03-04T17:55:55.392Z,102.93
2023-03-04T17:58:22.403Z,109.65
2023-03-04T18:00:49.861Z,112.85
2023-03-04T18:03:16.703Z,104.22
2023-03-04T18:05:43.564Z,122.90
2023-03-04T18:08:10.788Z,113.50
2023-03-04T18:10:37.647Z,109.57
2023-03-04T18:13:04.519Z,103.88
2023-03-04T18:15:31.397Z,102.60
2023-03-04T18:17:58.192Z,106.57
2023-03-04T18:20:24.990Z,100.00
2023-03-04T18:22:51.755Z,99.78
2023-03-04T18:25:18.696Z,96.95
2023-03-04T18:27:45.529Z,104.63
2023-03-04T18:30:17.469Z,98.25
2023-03-04T18:32:51.796Z,93.97
2023-03-04T18:35:19.720Z,104.57
2023-03-04T18:37:46.885Z,99.83
2023-03-04T18:40:14.327Z,107.80
2023-03-04T18:42:44.087Z,91.03
2023-03-04T18:45:14.657Z,99.97
2023-03-04T18:47:42.098Z,108.82
2023-03-04T18:50:09.928Z,110.47
2023-03-04T18:52:37.080Z,111.60
2023-03-04T18:55:04.143Z,99.70
2023-03-04T18:57:31.002Z,95.77
2023-03-04T18:59:59.373Z,101.87
2023-03-04T19:02:49.983Z,103.40
2023-03-04T19:05:21.507Z,105.65
2023-03-04T19:07:48.918Z,109.00
2023-03-04T19:10:16.369Z,106.50
2023-03-04T19:12:44.728Z,109.47
2023-03-04T19:15:11.937Z,114.93
2023-03-04T19:17:39.170Z,117.87
2023-03-04T19:20:08.012Z,116.33
2023-03-04T19:22:35.194Z,117.67
2023-03-04T19:25:02.077Z,109.00
2023-03-04T19:27:28.890Z,115.23
2023-03-04T19:29:55.698Z,109.47
2023-03-04T19:32:22.591Z,116.17
2023-03-04T19:34:49.500Z,118.93
2023-03-04T19:37:16.312Z,108.77
2023-03-04T19:39:43.583Z,119.30
2023-03-04T19:42:11.276Z,106.77
2023-03-04T19:44:38.207Z,108.20
2023-03-04T19:47:05.223Z,103.00
2023-03-04T19:49:32.061Z,101.70
2023-03-04T19:51:58.983Z,101.63
2023-03-04T19:54:25.816Z,97.50
2023-03-04T19:56:52.557Z,113.53
2023-03-04T19:59:19.354Z,102.30
2023-03-04T20:01:47.240Z,96.67
2023-03-04T20:04:15.737Z,102.80
2023-03-04T20:06:44.145Z,106.00
2023-03-04T20:09:11.292Z,104.93
2023-03-04T20:11:50.843Z,101.87
2023-03-04T20:14:23.229Z,109.73
2023-03-04T20:16:50.039Z,96.07
2023-03-04T20:19:16.856Z,113.13
2023-03-04T20:21:43.911Z,105.80
2023-03-04T20:24:10.790Z,101.27
2023-03-04T20:26:39.476Z,105.90
2023-03-04T20:29:06.335Z,137.73
2023-03-04T20:31:37.256Z,234.30
2023-03-04T20:36:30.847Z,184.37
2023-03-04T20:39:02.465Z,127.87
2023-03-04T20:41:31.130Z,104.00
2023-03-04T20:43:57.921Z,98.70
2023-03-04T20:46:42.995Z,101.53
2023-03-04T20:49:24.126Z,98.83
2023-03-04T20:51:52.280Z,98.97
2023-03-04T20:54:19.204Z,103.87
2023-03-04T20:56:46.150Z,98.13
2023-03-04T20:59:15.011Z,92.23
2023-03-04T21:01:43.350Z,105.90
2023-03-04T21:04:10.460Z,93.00
2023-03-04T21:06:38.835Z,96.97
2023-03-04T21:09:07.805Z,88.40
2023-03-04T21:11:40.250Z,93.47
2023-03-04T21:14:14.159Z,90.87
2023-03-04T21:16:41.157Z,95.53
2023-03-04T21:19:12.753Z,92.23
2023-03-04T21:21:39.541Z,90.43
2023-03-04T21:24:06.484Z,84.93
2023-03-04T21:26:33.283Z,95.57
2023-03-04T21:29:00.113Z,105.13
2023-03-04T21:31:29.170Z,102.07
2023-03-04T21:33:56.370Z,106.40
2023-03-04T21:36:23.217Z,124.93
2023-03-04T21:38:49.996Z,111.50
2023-03-04T21:41:18.081Z,110.30
2023-03-04T21:43:44.983Z,100.17
2023-03-04T21:46:13.129Z,110.17
2023-03-04T21:48:40.747Z,154.03
2023-03-04T21:51:08.104Z,101.53
2023-03-04T21:53:35.234Z,97.87
2023-03-04T21:56:02.341Z,112.57
2023-03-04T21:58:29.301Z,144.80
2023-03-04T22:00:57.114Z,163.00
2023-03-04T22:03:23.925Z,99.83
2023-03-04T22:05:50.882Z,90.33
2023-03-04T22:08:19.963Z,112.83
2023-03-04T22:10:47.187Z,103.47
2023-03-04T22:13:14.684Z,111.43
2023-03-04T22:15:42.970Z,98.40
2023-03-04T22:18:11.296Z,115.23
2023-03-04T22:20:39.536Z,129.03
2023-03-04T22:23:06.529Z,297.90
2023-03-04T22:25:37.702Z,111.93
2023-03-04T22:28:05.009Z,110.23
2023-03-04T22:30:32.573Z,161.77
2023-03-04T22:32:59.458Z,265.53
2023-03-04T22:35:26.301Z,141.70
2023-03-04T22:37:53.268Z,151.20
2023-03-04T22:40:20.287Z,226.17
2023-03-04T22:42:47.412Z,111.40
2023-03-04T22:45:16.695Z,102.50
2023-03-04T22:47:52.589Z,86.87
2023-03-04T22:50:20.920Z,93.70
2023-03-04T22:52:48.193Z,95.87
2023-03-04T22:55:15.829Z,75.57
2023-03-04T22:57:42.787Z,70.27
2023-03-04T23:00:18.770Z,81.30
2023-03-04T23:02:45.675Z,75.53
2023-03-04T23:05:12.848Z,76.03
2023-03-04T23:07:40.191Z,81.70
2023-03-04T23:10:08.283Z,80.40
2023-03-04T23:12:35.201Z,82.30
2023-03-04T23:15:02.084Z,88.17
2023-03-04T23:17:28.957Z,82.07
2023-03-04T23:19:55.778Z,82.00
2023-03-04T23:22:22.610Z,87.17
2023-03-04T23:24:49.507Z,86.40
2023-03-04T23:27:16.331Z,81.00
2023-03-04T23:29:43.134Z,77.97
2023-03-04T23:32:09.927Z,69.73
2023-03-04T23:34:36.794Z,79.57
2023-03-04T23:37:03.905Z,79.40
2023-03-04T23:39:30.710Z,76.67
2023-03-04T23:41:57.472Z,78.83
2023-03-04T23:44:24.285Z,71.20
2023-03-04T23:46:51.044Z,71.47
2023-03-04T23:49:18.111Z,78.87
2023-03-04T23:51:45.391Z,75.73
2023-03-04T23:54:13.049Z,78.07
2023-03-04T23:56:39.876Z,68.93
2023-03-04T23:59:07.781Z,65.00
